ORMM/BSR METAR and TAF weather

Enter ICAO airport designator
Station Type Date Time Source
ORMM METAR 2019/11/14 04:00 UTC NOAA

ORMM 140400Z 00000KT CAVOK 15/06 Q1018 NOSIG


Station Type Date Time Source
ORMM Decoded METAR 2019/11/14 04:00 UTC NOAA

Station name not available
Nov 13, 2019 - 11:00 PM EST / 2019.11.14 0400 UTC
Wind: Calm:0
Visibility: greater than 7 mile(s):0
Temperature: 59 F (15 C)
Dew Point: 42 F (6 C)
Relative Humidity: 54%
Pressure (altimeter): 30.06 in. Hg (1018 hPa)
ob: ORMM 140400Z 00000KT CAVOK 15/06 Q1018 NOSIG
cycle: 4

Station Type Date Time Source
ORMM TAF 2019/11/14 06:09 UTC NOAA

TAF ORMM 140400Z 1406/1506 25005KT CAVOK

Example: see airport list